createdAt,value
2023-08-16T00:01:29.458Z,17.50
2023-08-16T00:03:56.395Z,17.50
2023-08-16T00:06:24.159Z,17.50
2023-08-16T00:08:54.353Z,17.50
2023-08-16T00:11:21.254Z,17.40
2023-08-16T00:13:48.099Z,17.40
2023-08-16T00:16:14.889Z,17.40
2023-08-16T00:18:41.724Z,17.30
2023-08-16T00:21:08.468Z,17.30
2023-08-16T00:23:35.252Z,17.30
2023-08-16T00:26:02.058Z,17.30
2023-08-16T00:28:28.820Z,17.30
2023-08-16T00:30:55.688Z,17.20
2023-08-16T00:33:22.963Z,17.20
2023-08-16T00:35:52.220Z,17.20
2023-08-16T00:38:19.336Z,17.20
2023-08-16T00:40:50.204Z,17.20
2023-08-16T00:43:17.415Z,17.10
2023-08-16T00:45:45.996Z,17.10
2023-08-16T00:48:14.357Z,17.10
2023-08-16T00:50:41.397Z,17.10
2023-08-16T00:53:09.647Z,17.00
2023-08-16T00:55:37.053Z,17.00
2023-08-16T00:58:04.078Z,17.00
2023-08-16T01:00:31.041Z,17.00
2023-08-16T01:02:58.107Z,17.00
2023-08-16T01:05:25.214Z,16.90
2023-08-16T01:07:52.937Z,16.90
2023-08-16T01:10:24.823Z,16.90
2023-08-16T01:12:57.040Z,16.90
2023-08-16T01:15:30.977Z,16.80
2023-08-16T01:18:00.489Z,16.80
2023-08-16T01:20:30.345Z,16.80
2023-08-16T01:23:05.437Z,16.80
2023-08-16T01:25:54.716Z,16.70
2023-08-16T01:28:22.613Z,16.60
2023-08-16T01:30:50.787Z,16.60
2023-08-16T01:33:17.665Z,16.60
2023-08-16T01:35:45.433Z,16.60
2023-08-16T01:38:14.364Z,16.60
2023-08-16T01:41:00.556Z,16.60
2023-08-16T01:43:28.236Z,16.60
2023-08-16T01:45:55.963Z,16.60
2023-08-16T01:48:24.374Z,16.60
2023-08-16T01:50:51.369Z,16.60
2023-08-16T01:53:19.575Z,16.60
2023-08-16T01:55:46.672Z,16.50
2023-08-16T01:58:13.523Z,16.50
2023-08-16T02:00:40.395Z,16.50
2023-08-16T02:03:07.245Z,16.50
2023-08-16T02:05:34.199Z,16.40
2023-08-16T02:08:01.033Z,16.40
2023-08-16T02:10:27.807Z,16.30
2023-08-16T02:12:54.579Z,16.40
2023-08-16T02:15:21.682Z,16.30
2023-08-16T02:17:48.558Z,16.30
2023-08-16T02:20:15.407Z,16.30
2023-08-16T02:22:43.534Z,16.30
2023-08-16T02:25:12.368Z,16.30
2023-08-16T02:27:39.589Z,16.30
2023-08-16T02:30:06.894Z,16.30
2023-08-16T02:32:37.917Z,16.30
2023-08-16T02:35:05.134Z,16.20
2023-08-16T02:37:32.005Z,16.30
2023-08-16T02:39:58.781Z,16.30
2023-08-16T02:42:25.594Z,16.20
2023-08-16T02:44:52.419Z,16.30
2023-08-16T02:47:19.250Z,16.20
2023-08-16T02:49:46.194Z,16.20
2023-08-16T02:52:13.544Z,16.20
2023-08-16T02:54:40.902Z,16.30
2023-08-16T02:57:07.681Z,16.20
2023-08-16T02:59:47.683Z,16.20
2023-08-16T03:02:15.619Z,16.20
2023-08-16T03:04:42.490Z,16.20
2023-08-16T03:07:10.770Z,16.30
2023-08-16T03:09:39.029Z,16.30
2023-08-16T03:12:07.166Z,16.30
2023-08-16T03:14:34.182Z,16.30
2023-08-16T03:17:01.569Z,16.30
2023-08-16T03:19:28.404Z,16.30
2023-08-16T03:21:57.023Z,16.20
2023-08-16T03:24:24.070Z,16.20
2023-08-16T03:26:51.516Z,16.20
2023-08-16T03:29:18.992Z,16.10
2023-08-16T03:31:46.114Z,16.10
2023-08-16T03:34:12.952Z,16.10
2023-08-16T03:36:39.737Z,16.10
2023-08-16T03:39:06.674Z,16.10
2023-08-16T03:41:35.087Z,16.10
2023-08-16T03:44:02.801Z,16.00
2023-08-16T03:46:29.693Z,16.00
2023-08-16T03:48:56.984Z,16.00
2023-08-16T03:51:23.740Z,16.00
2023-08-16T03:53:50.689Z,16.00
2023-08-16T03:56:17.517Z,16.00
2023-08-16T03:58:44.384Z,16.00
2023-08-16T04:01:11.155Z,16.00
2023-08-16T04:03:38.038Z,16.00
2023-08-16T04:06:11.587Z,16.00
2023-08-16T04:08:41.362Z,16.00
2023-08-16T04:11:08.217Z,16.00
2023-08-16T04:13:35.470Z,15.90
2023-08-16T04:16:02.330Z,15.90
2023-08-16T04:18:29.870Z,15.90
2023-08-16T04:20:57.613Z,15.90
2023-08-16T04:23:24.987Z,15.90
2023-08-16T04:25:51.839Z,15.80
2023-08-16T04:28:18.829Z,15.80
2023-08-16T04:30:45.709Z,15.80
2023-08-16T04:33:12.884Z,15.80
2023-08-16T04:35:39.674Z,15.80
2023-08-16T04:38:07.107Z,15.80
2023-08-16T04:40:33.972Z,15.80
2023-08-16T04:43:00.783Z,15.80
2023-08-16T04:45:27.516Z,15.90
2023-08-16T04:47:54.401Z,15.80
2023-08-16T04:50:21.211Z,15.80
2023-08-16T04:52:47.990Z,15.80
2023-08-16T04:55:16.007Z,15.80
2023-08-16T04:57:42.781Z,15.80
2023-08-16T05:00:10.606Z,15.80
2023-08-16T05:02:37.504Z,15.80
2023-08-16T05:05:05.375Z,15.90
2023-08-16T05:07:32.259Z,15.90
2023-08-16T05:09:59.015Z,15.90
2023-08-16T05:12:25.747Z,15.90
2023-08-16T05:14:52.520Z,15.90
2023-08-16T05:17:19.300Z,16.00
2023-08-16T05:19:46.154Z,15.90
2023-08-16T05:22:12.951Z,16.00
2023-08-16T05:24:39.657Z,16.10
2023-08-16T05:27:12.858Z,16.10
2023-08-16T05:29:40.982Z,16.10
2023-08-16T05:32:08.155Z,16.10
2023-08-16T05:34:35.034Z,16.20
2023-08-16T05:37:01.896Z,16.20
2023-08-16T05:39:28.911Z,16.20
2023-08-16T05:41:55.641Z,16.30
2023-08-16T05:44:22.433Z,16.30
2023-08-16T05:46:49.367Z,16.30
2023-08-16T05:49:16.207Z,16.30
2023-08-16T05:51:42.936Z,16.40
2023-08-16T05:54:09.749Z,16.40
2023-08-16T05:56:36.550Z,16.40
2023-08-16T05:59:03.411Z,16.50
2023-08-16T06:01:30.240Z,16.50
2023-08-16T06:03:57.153Z,16.60
2023-08-16T06:06:24.148Z,16.70
2023-08-16T06:08:50.953Z,16.70
2023-08-16T06:11:17.748Z,16.80
2023-08-16T06:13:44.557Z,16.90
2023-08-16T06:16:11.720Z,17.00
2023-08-16T06:18:38.581Z,17.20
2023-08-16T06:21:05.324Z,17.20
2023-08-16T06:23:32.398Z,17.30
2023-08-16T06:25:59.229Z,17.40
2023-08-16T06:28:26.079Z,17.50
2023-08-16T06:30:53.172Z,17.50
2023-08-16T06:33:19.965Z,17.60
2023-08-16T06:35:47.498Z,17.70
2023-08-16T06:38:14.709Z,17.80
2023-08-16T06:40:41.622Z,17.90
2023-08-16T06:43:08.494Z,18.00
2023-08-16T06:45:35.271Z,18.10
2023-08-16T06:48:04.503Z,18.20
2023-08-16T06:50:31.574Z,18.30
2023-08-16T06:52:58.470Z,18.40
2023-08-16T06:55:25.233Z,18.40
2023-08-16T06:57:52.045Z,18.60
2023-08-16T07:00:19.010Z,18.60
2023-08-16T07:02:45.921Z,18.60
2023-08-16T07:05:13.614Z,18.70
2023-08-16T07:07:40.538Z,18.80
2023-08-16T07:10:08.593Z,18.80
2023-08-16T07:12:35.782Z,18.90
2023-08-16T07:15:03.928Z,19.10
2023-08-16T07:17:30.892Z,19.10
2023-08-16T07:19:57.709Z,19.20
2023-08-16T07:22:28.139Z,19.30
2023-08-16T07:24:55.433Z,19.40
2023-08-16T07:27:22.278Z,19.50
2023-08-16T07:29:49.289Z,19.50
2023-08-16T07:32:16.113Z,19.60
2023-08-16T07:34:44.436Z,19.70
2023-08-16T07:37:11.676Z,19.80
2023-08-16T07:39:38.528Z,19.80
2023-08-16T07:42:06.656Z,19.90
2023-08-16T07:44:36.567Z,20.00
2023-08-16T07:47:03.999Z,20.00
2023-08-16T07:49:30.956Z,20.10
2023-08-16T07:51:58.395Z,20.20
2023-08-16T07:54:25.973Z,20.30
2023-08-16T07:56:53.840Z,20.40
2023-08-16T07:59:20.672Z,20.50
2023-08-16T08:01:47.908Z,20.50
2023-08-16T08:04:15.041Z,20.60
2023-08-16T08:06:42.542Z,20.70
2023-08-16T08:09:09.503Z,20.90
2023-08-16T08:11:38.601Z,20.90
2023-08-16T08:14:05.754Z,21.00
2023-08-16T08:16:32.932Z,21.10
2023-08-16T08:18:59.812Z,21.20
2023-08-16T08:21:26.785Z,21.20
2023-08-16T08:23:53.591Z,21.30
2023-08-16T08:26:20.854Z,21.40
2023-08-16T08:28:47.668Z,21.40
2023-08-16T08:31:14.727Z,21.40
2023-08-16T08:33:41.657Z,21.40
2023-08-16T08:36:08.556Z,21.40
2023-08-16T08:38:36.347Z,21.40
2023-08-16T08:41:03.242Z,21.40
2023-08-16T08:43:53.549Z,21.40
2023-08-16T08:46:25.526Z,21.30
2023-08-16T08:48:53.198Z,21.30
2023-08-16T08:51:20.046Z,21.30
2023-08-16T08:53:46.907Z,21.30
2023-08-16T08:56:17.208Z,21.40
2023-08-16T08:58:48.828Z,21.50
2023-08-16T09:01:21.386Z,21.60
2023-08-16T09:03:49.995Z,21.70
2023-08-16T09:06:16.870Z,21.80
2023-08-16T09:08:45.036Z,21.90
2023-08-16T09:11:12.142Z,22.00
2023-08-16T09:13:38.952Z,22.10
2023-08-16T09:16:05.891Z,22.20
2023-08-16T09:18:32.943Z,22.20
2023-08-16T09:21:00.984Z,22.30
2023-08-16T09:23:27.961Z,22.40
2023-08-16T09:25:54.868Z,22.50
2023-08-16T09:28:21.899Z,22.60
2023-08-16T09:30:48.685Z,22.70
2023-08-16T09:33:18.677Z,22.80
2023-08-16T09:35:51.406Z,22.80
2023-08-16T09:38:38.053Z,22.80
2023-08-16T09:41:14.555Z,22.90
2023-08-16T09:43:41.506Z,23.00
2023-08-16T09:46:08.686Z,23.00
2023-08-16T09:48:35.943Z,23.10
2023-08-16T09:51:10.450Z,23.20
2023-08-16T09:53:48.797Z,23.20
2023-08-16T09:58:46.709Z,23.30
2023-08-16T10:03:59.912Z,23.40
2023-08-16T10:09:05.511Z,23.40
2023-08-16T10:11:36.762Z,23.50
2023-08-16T10:14:03.916Z,23.60
2023-08-16T10:16:32.716Z,23.60
2023-08-16T10:19:01.953Z,23.60
2023-08-16T10:21:31.644Z,23.80
2023-08-16T10:23:59.435Z,23.80
2023-08-16T10:26:31.521Z,23.80
2023-08-16T10:31:46.169Z,23.80
2023-08-16T10:34:15.500Z,23.90
2023-08-16T10:36:43.352Z,24.00
2023-08-16T10:39:21.902Z,24.10
2023-08-16T10:41:50.976Z,24.10
2023-08-16T10:44:24.806Z,24.30
2023-08-16T10:46:52.248Z,24.30
2023-08-16T10:49:19.514Z,24.40
2023-08-16T10:51:55.218Z,24.40
2023-08-16T10:54:35.780Z,24.40
2023-08-16T10:57:04.041Z,24.60
2023-08-16T10:59:40.913Z,24.60
2023-08-16T11:02:16.356Z,24.70
2023-08-16T11:04:43.796Z,24.80
2023-08-16T11:07:19.654Z,24.90
2023-08-16T11:09:46.618Z,24.90
2023-08-16T11:12:15.711Z,25.00
2023-08-16T11:14:44.901Z,25.00
2023-08-16T11:17:16.007Z,25.00
2023-08-16T11:19:43.290Z,25.00
2023-08-16T11:22:12.904Z,25.00
2023-08-16T11:24:39.975Z,25.00
2023-08-16T11:27:07.789Z,25.00
2023-08-16T11:29:35.332Z,25.10
2023-08-16T11:32:02.230Z,25.10
2023-08-16T11:34:33.107Z,25.20
2023-08-16T11:37:00.042Z,25.30
2023-08-16T11:39:28.661Z,25.40
2023-08-16T11:41:55.609Z,25.50
2023-08-16T11:44:25.535Z,25.70
2023-08-16T11:46:52.922Z,25.70
2023-08-16T11:49:23.398Z,25.70
2023-08-16T11:51:50.296Z,25.80
2023-08-16T11:54:22.974Z,25.80
2023-08-16T11:56:51.019Z,25.80
2023-08-16T11:59:27.566Z,25.90
2023-08-16T12:01:56.552Z,25.90
2023-08-16T12:04:24.781Z,25.90
2023-08-16T12:06:51.787Z,25.90
2023-08-16T12:09:20.769Z,25.90
2023-08-16T12:11:52.971Z,25.90
2023-08-16T12:14:20.146Z,25.90
2023-08-16T12:16:46.972Z,25.90
2023-08-16T12:19:21.765Z,25.90
2023-08-16T12:21:48.665Z,26.00
2023-08-16T12:24:15.469Z,26.00
2023-08-16T12:26:42.306Z,26.00
2023-08-16T12:29:09.020Z,26.00
2023-08-16T12:31:36.135Z,26.10
2023-08-16T12:34:03.297Z,26.20
2023-08-16T12:36:30.279Z,26.20
2023-08-16T12:38:57.057Z,26.30
2023-08-16T12:41:23.936Z,26.30
2023-08-16T12:43:52.798Z,26.30
2023-08-16T12:46:19.646Z,26.30
2023-08-16T12:48:47.281Z,26.30
2023-08-16T12:51:17.747Z,26.20
2023-08-16T12:53:45.784Z,26.30
2023-08-16T12:56:14.096Z,26.30
2023-08-16T12:58:56.102Z,26.30
2023-08-16T13:01:24.030Z,26.40
2023-08-16T13:06:30.919Z,26.40
2023-08-16T13:11:33.912Z,26.40
2023-08-16T13:14:01.744Z,26.40
2023-08-16T13:16:30.661Z,26.40
2023-08-16T13:24:37.681Z,26.30
2023-08-16T13:27:07.490Z,26.30
2023-08-16T13:34:57.806Z,26.60
2023-08-16T13:37:27.854Z,26.70
2023-08-16T13:40:20.297Z,26.70
2023-08-16T13:45:19.429Z,26.80
2023-08-16T13:47:46.587Z,26.80
2023-08-16T13:50:13.332Z,26.90
2023-08-16T13:52:40.106Z,26.90
2023-08-16T13:55:07.435Z,27.00
2023-08-16T13:57:34.186Z,27.00
2023-08-16T14:00:00.929Z,27.00
2023-08-16T14:02:28.163Z,27.00
2023-08-16T14:04:55.342Z,27.00
2023-08-16T14:07:22.155Z,27.10
2023-08-16T14:09:48.954Z,27.20
2023-08-16T14:12:15.771Z,27.20
2023-08-16T14:14:42.539Z,27.30
2023-08-16T14:17:09.472Z,27.30
2023-08-16T14:19:36.505Z,27.20
2023-08-16T14:22:03.241Z,27.10
2023-08-16T14:24:30.069Z,26.90
2023-08-16T14:26:56.857Z,26.70
2023-08-16T14:29:23.696Z,26.60
2023-08-16T14:31:50.472Z,26.60
2023-08-16T14:34:17.306Z,26.60
2023-08-16T14:36:44.699Z,26.70
2023-08-16T14:39:11.531Z,26.70
2023-08-16T14:41:38.575Z,26.90
2023-08-16T14:44:05.560Z,26.90
2023-08-16T14:46:32.509Z,27.00
2023-08-16T14:48:59.303Z,27.00
2023-08-16T14:51:26.087Z,27.00
2023-08-16T14:53:52.845Z,27.00
2023-08-16T14:56:19.704Z,26.90
2023-08-16T14:58:46.708Z,26.90
2023-08-16T15:01:13.569Z,26.90
2023-08-16T15:03:40.543Z,27.00
2023-08-16T15:06:07.343Z,27.00
2023-08-16T15:08:39.351Z,27.00
2023-08-16T15:11:20.148Z,27.00
2023-08-16T15:13:47.246Z,27.10
2023-08-16T15:16:15.517Z,27.10
2023-08-16T15:18:42.571Z,27.10
2023-08-16T15:21:09.535Z,27.10
2023-08-16T15:23:38.117Z,27.10
2023-08-16T15:26:07.191Z,27.10
2023-08-16T15:28:36.744Z,27.00
2023-08-16T15:31:04.588Z,27.00
2023-08-16T15:33:31.396Z,27.00
2023-08-16T15:35:58.437Z,26.90
2023-08-16T15:38:45.159Z,26.80
2023-08-16T15:41:12.860Z,26.60
2023-08-16T15:43:40.005Z,26.40
2023-08-16T15:46:08.344Z,26.40
2023-08-16T15:48:35.819Z,26.40
2023-08-16T15:51:03.078Z,26.40
2023-08-16T15:53:29.893Z,26.40
2023-08-16T15:55:57.060Z,26.30
2023-08-16T15:58:25.399Z,26.20
2023-08-16T16:00:57.714Z,26.10
2023-08-16T16:03:24.610Z,26.00
2023-08-16T16:05:51.457Z,26.00
2023-08-16T16:08:18.868Z,26.00
2023-08-16T16:10:47.645Z,26.00
2023-08-16T16:13:16.377Z,26.00
2023-08-16T16:15:43.643Z,26.00
2023-08-16T16:18:10.548Z,25.90
2023-08-16T16:20:37.500Z,25.90
2023-08-16T16:23:04.407Z,25.80
2023-08-16T16:25:31.389Z,25.70
2023-08-16T16:27:58.278Z,25.70
2023-08-16T16:30:25.164Z,25.60
2023-08-16T16:32:51.983Z,25.60
2023-08-16T16:35:18.889Z,25.60
2023-08-16T16:37:47.558Z,25.50
2023-08-16T16:40:14.699Z,25.50
2023-08-16T16:42:45.414Z,25.40
2023-08-16T16:45:13.060Z,25.40
2023-08-16T16:47:40.386Z,25.30
2023-08-16T16:50:08.323Z,25.30
2023-08-16T16:52:36.619Z,25.30
2023-08-16T16:55:05.027Z,25.30
2023-08-16T16:57:33.565Z,25.20
2023-08-16T17:00:02.167Z,25.10
2023-08-16T17:02:29.082Z,25.10
2023-08-16T17:04:56.003Z,25.00
2023-08-16T17:07:23.005Z,25.00
2023-08-16T17:09:49.934Z,24.90
2023-08-16T17:12:16.792Z,24.80
2023-08-16T17:14:43.530Z,24.80
2023-08-16T17:17:11.135Z,24.70
2023-08-16T17:19:37.914Z,24.60
2023-08-16T17:22:06.248Z,24.60
2023-08-16T17:24:33.340Z,24.60
2023-08-16T17:27:00.274Z,24.50
2023-08-16T17:29:27.110Z,24.50
2023-08-16T17:31:54.169Z,24.50
2023-08-16T17:34:21.614Z,24.40
2023-08-16T17:36:48.592Z,24.40
2023-08-16T17:39:15.342Z,24.30
2023-08-16T17:41:42.180Z,24.30
2023-08-16T17:44:09.509Z,24.30
2023-08-16T17:46:36.460Z,24.20
2023-08-16T17:49:03.360Z,24.20
2023-08-16T17:51:30.234Z,24.10
2023-08-16T17:53:57.076Z,24.00
2023-08-16T17:56:23.913Z,24.00
2023-08-16T17:58:51.603Z,24.00
2023-08-16T18:01:18.515Z,23.90
2023-08-16T18:03:46.986Z,23.80
2023-08-16T18:06:13.973Z,23.80
2023-08-16T18:08:41.402Z,23.80
2023-08-16T18:11:08.293Z,23.80
2023-08-16T18:13:37.927Z,23.70
2023-08-16T18:16:05.149Z,23.70
2023-08-16T18:18:31.920Z,23.60
2023-08-16T18:20:58.746Z,23.60
2023-08-16T18:23:25.617Z,23.60
2023-08-16T18:25:53.041Z,23.60
2023-08-16T18:28:23.373Z,23.50
2023-08-16T18:30:50.474Z,23.50
2023-08-16T18:33:17.782Z,23.50
2023-08-16T18:35:44.661Z,23.40
2023-08-16T18:38:11.519Z,23.40
2023-08-16T18:40:38.484Z,23.40
2023-08-16T18:43:05.220Z,23.30
2023-08-16T18:45:32.038Z,23.30
2023-08-16T18:47:58.847Z,23.20
2023-08-16T18:50:27.554Z,23.20
2023-08-16T18:52:56.545Z,23.10
2023-08-16T18:55:23.521Z,23.00
2023-08-16T18:57:50.257Z,23.00
2023-08-16T19:00:17.352Z,23.00
2023-08-16T19:02:44.223Z,22.90
2023-08-16T19:05:11.099Z,22.80
2023-08-16T19:07:37.943Z,22.80
2023-08-16T19:10:05.199Z,22.80
2023-08-16T19:12:31.980Z,22.70
2023-08-16T19:14:58.875Z,22.60
2023-08-16T19:17:25.867Z,22.60
2023-08-16T19:19:54.123Z,22.50
2023-08-16T19:22:20.969Z,22.50
2023-08-16T19:24:47.794Z,22.50
2023-08-16T19:27:14.874Z,22.40
2023-08-16T19:29:41.698Z,22.40
2023-08-16T19:32:08.955Z,22.30
2023-08-16T19:34:35.723Z,22.30
2023-08-16T19:37:02.534Z,22.20
2023-08-16T19:39:29.727Z,22.10
2023-08-16T19:41:56.624Z,22.00
2023-08-16T19:44:23.575Z,22.00
2023-08-16T19:46:50.297Z,22.00
2023-08-16T19:49:17.059Z,21.90
2023-08-16T19:51:43.897Z,21.80
2023-08-16T19:54:10.661Z,21.70
2023-08-16T19:56:38.654Z,21.70
2023-08-16T19:59:05.470Z,21.70
2023-08-16T20:01:32.450Z,21.60
2023-08-16T20:03:59.786Z,21.60
2023-08-16T20:06:26.865Z,21.50
2023-08-16T20:08:53.638Z,21.50
2023-08-16T20:11:20.438Z,21.40
2023-08-16T20:13:47.205Z,21.40
2023-08-16T20:16:14.628Z,21.30
2023-08-16T20:18:42.228Z,21.30
2023-08-16T20:21:10.035Z,21.30
2023-08-16T20:23:36.890Z,21.30
2023-08-16T20:26:03.625Z,21.20
2023-08-16T20:28:30.415Z,21.20
2023-08-16T20:30:57.207Z,21.10
2023-08-16T20:33:24.066Z,21.10
2023-08-16T20:35:50.984Z,21.10
2023-08-16T20:38:17.872Z,21.10
2023-08-16T20:40:44.677Z,21.00
2023-08-16T20:43:11.616Z,21.00
2023-08-16T20:45:38.887Z,21.00
2023-08-16T20:48:06.330Z,21.00
2023-08-16T20:50:33.738Z,20.90
2023-08-16T20:53:00.509Z,20.90
2023-08-16T20:55:27.377Z,20.90
2023-08-16T20:57:54.126Z,20.80
2023-08-16T21:00:20.940Z,20.80
2023-08-16T21:02:47.755Z,20.80
2023-08-16T21:05:14.666Z,20.70
2023-08-16T21:07:41.571Z,20.70
2023-08-16T21:10:08.656Z,20.60
2023-08-16T21:12:35.483Z,20.60
2023-08-16T21:15:02.270Z,20.50
2023-08-16T21:17:29.350Z,20.60
2023-08-16T21:19:56.285Z,20.50
2023-08-16T21:22:23.189Z,20.50
2023-08-16T21:24:49.955Z,20.50
2023-08-16T21:27:16.724Z,20.40
2023-08-16T21:29:43.514Z,20.40
2023-08-16T21:32:10.304Z,20.30
2023-08-16T21:34:37.046Z,20.30
2023-08-16T21:37:03.945Z,20.30
2023-08-16T21:39:30.749Z,20.30
2023-08-16T21:41:57.500Z,20.20
2023-08-16T21:44:24.326Z,20.20
2023-08-16T21:46:51.255Z,20.20
2023-08-16T21:49:18.291Z,20.20
2023-08-16T21:51:45.113Z,20.10
2023-08-16T21:54:12.025Z,20.10
2023-08-16T21:56:38.934Z,20.10
2023-08-16T21:59:05.771Z,20.10
2023-08-16T22:01:32.597Z,20.10
2023-08-16T22:03:59.471Z,20.10
2023-08-16T22:06:26.291Z,20.00
2023-08-16T22:08:53.106Z,20.00
2023-08-16T22:11:20.763Z,20.00
2023-08-16T22:13:47.686Z,20.10
2023-08-16T22:16:14.669Z,20.00
2023-08-16T22:18:41.791Z,20.00
2023-08-16T22:21:10.647Z,20.00
2023-08-16T22:23:37.955Z,20.00
2023-08-16T22:26:07.606Z,19.90
2023-08-16T22:28:34.798Z,19.90
2023-08-16T22:31:01.690Z,19.90
2023-08-16T22:33:28.580Z,19.90
2023-08-16T22:35:55.288Z,19.90
2023-08-16T22:38:22.300Z,19.80
2023-08-16T22:40:49.118Z,19.80
2023-08-16T22:43:15.844Z,19.80
2023-08-16T22:45:42.815Z,19.70
2023-08-16T22:48:09.519Z,19.70
2023-08-16T22:50:36.372Z,19.70
2023-08-16T22:53:03.166Z,19.70
2023-08-16T22:55:29.975Z,19.60
2023-08-16T22:57:56.695Z,19.60
2023-08-16T23:00:23.873Z,19.60
2023-08-16T23:02:50.716Z,19.60
2023-08-16T23:05:17.576Z,19.50
2023-08-16T23:07:44.344Z,19.50
2023-08-16T23:10:11.141Z,19.50
2023-08-16T23:12:37.858Z,19.50
2023-08-16T23:15:04.988Z,19.40
2023-08-16T23:17:31.860Z,19.40
2023-08-16T23:19:58.697Z,19.40
2023-08-16T23:22:25.810Z,19.30
2023-08-16T23:24:52.606Z,19.30
2023-08-16T23:27:19.494Z,19.30
2023-08-16T23:29:46.296Z,19.30
2023-08-16T23:32:13.033Z,19.20
2023-08-16T23:34:39.931Z,19.20
2023-08-16T23:37:06.808Z,19.10
2023-08-16T23:39:34.039Z,19.20
2023-08-16T23:42:01.162Z,19.20
2023-08-16T23:44:28.247Z,19.10
2023-08-16T23:46:55.185Z,19.10
2023-08-16T23:49:22.093Z,19.10
2023-08-16T23:51:49.555Z,19.10
2023-08-16T23:54:16.456Z,19.10
2023-08-16T23:56:43.366Z,19.00
2023-08-16T23:59:10.326Z,19.00
